Главная страница
METAR-TAF:

METAR-TAF

Аэропорты :

Уилкс-Барре / Скрентон, Пенсильвания, США

широта: 41-20-20N, долгота: 075-43-36W, высота над уровнем моря: 293 м

Текущие метеонаблюдения

Эта сводка был подготовлена 47 минут назад, в 02:54 UTC
Штиль
Температура 16°C
Влажность 82%
Давление 1025 hPa
Видимость: 16.1 км
Сплошная облачность на высоте 7000 фута

METAR: KAVP 250254Z 00000KT 10SM OVC070 16/13 A3027 RMK AO2 SLP247 T01610128 51015

Время: 23:41 (03:41 UTC)

Прогноз

Эта сводка был подготовлена 4 часа и 21 минут назад, в 23:20 UTC
Прогноз действительный с 25-го 00 UTC до 25-го 24 UTC
Ветер 3 Узел от восточный
Видимость: 10 км
Отдельные облака на высоте 6000 фута
С 25-го 1400 UTC
Ветер 6 Узел от северо-восточный
Видимость: 10 км
Отдельные облака на высоте 6000 фута

TAF: KAVP 242320Z 2500/2524 09003KT P6SM SCT060 FM251400 05006KT P6SM SCT060

Метеонаблюдения и прогнозы для более 4000 аэропортов (сводки METAR и TAF).

Имеющиеся станции представлены на карте желтыми и красными точками.

Чтобы увидеть название станции, наведите на нее мышь.

Затем щелкните, чтобы увидеть метеонаблюдения и метеопрогнозы.

Управление картой: чтобы увеличить масштаб, щелкните зеленые кнопки с черным крестиком; чтобы уменьшить масштаб, щелкните зеленую кнопку с тире; для просмотра соседних карт щелкайте зеленые стрелки.


METAR-TAF: